Terminal Aerodrome Forecast
Issued by NWS Anchorage, AK

Home | Current Version | Previous Version | Text Only | Print | Product List | Glossary On
Versions: 1 2 3 4 5 6 7 8 9 10 11 12 13 14 15 16 17 18 19 20 21 22 23 24 25 26 27 28 29 30 31 32 33 34 35 36 37 38 39 40 41 42 43 44
000
FTAK31 PANC 212018 AAC
TAFANC
TAF AMD
PANC 212018Z 2120/2224 36005KT P6SM -RA BKN005 OVC060 WS010/11025KT
      TEMPO 2120/2122 SCT005 OVC060
     FM212200 35006KT 6SM -RA FEW005 SCT025 OVC040 WS010/11025KT
      TEMPO 2122/2202 4SM -RA BR SCT005 OVC025
     FM220600 02006KT P6SM -SHRA OVC050
     FM221400 02005KT 5SM -RA BR SCT025 OVC035=

USA.gov is the U.S. government's official web portal to all federal, state and local government web resources and services.